WetterOnline ( https://www.wetteronline.de )

Wetter aktuell Auerbach

Aktuelles Wetter: Carlsfeld (899m)

6-stündlich | Neueste Meldungen
Ortszeit Temperatur Wetter
Sa, 26.09. 8:00 3.9° C leichter Regen
Sa, 26.09. 2:00 4.1° C leichter Regen
Fr, 25.09. 20:00 5.0° C leichter Regen
Fr, 25.09. 14:00 7.9° C bewölkt
Fr, 25.09. 8:00 9.5° C Sprühregen
Fr, 25.09. 2:00 13.2° C leichter Regen
Do, 24.09. 20:00 12.5° C bedeckt
Do, 24.09. 14:00 14.4° C wolkig
Ortszeit Temperatur Wetter
Sa, 26.09. 9:30 3.7° C leichter Regen
Sa, 26.09. 9:20 3.7° C leichter Regen
Sa, 26.09. 9:10 3.8° C Regen
Sa, 26.09. 9:00 3.9° C leichter Regen
Sa, 26.09. 8:50 3.9° C leichter Regen
Sa, 26.09. 8:40 3.9° C leichter Regen
Sa, 26.09. 8:30 3.8° C leichter Regen
Sa, 26.09. 8:00 3.9° C leichter Regen
Ortszeit Relative Feuchte Sichtweite
Sa, 26.09. 8:00 96% 6 km
Sa, 26.09. 2:00 96% 11 km
Fr, 25.09. 20:00 87% 45 km
Fr, 25.09. 14:00 87% 60 km
Fr, 25.09. 8:00 94% 40 km
Fr, 25.09. 2:00 79% 45 km
Do, 24.09. 20:00 78% 65 km
Do, 24.09. 14:00 80% 50 km
Ortszeit Relative Feuchte Sichtweite
Sa, 26.09. 9:30 94% 5.0 km
Sa, 26.09. 9:20 94% -
Sa, 26.09. 9:10 95% -
Sa, 26.09. 9:00 95% 7 km
Sa, 26.09. 8:50 95% -
Sa, 26.09. 8:40 96% -
Sa, 26.09. 8:30 95% 9 km
Sa, 26.09. 8:00 96% 6 km
Ortszeit Niederschlagsmenge Niederschlagsart
Sa, 26.09. 8:00 13 l/m2 in 12 Std. Regen
Sa, 26.09. 2:00 0.6 l/m2 in 6 Std. Regen
Fr, 25.09. 20:00 2 l/m2 in 12 Std. Regen
Fr, 25.09. 14:00 2 l/m2 in 6 Std. Regen
Fr, 25.09. 8:00 9 l/m2 in 12 Std. Regen
Fr, 25.09. 2:00 0.1 l/m2 in 6 Std. Regen
Do, 24.09. 20:00 0.9 l/m2 in 12 Std. -
Do, 24.09. 14:00 0.9 l/m2 in 6 Std. Regen
Ortszeit Niederschlagsmenge Niederschlagsart
Sa, 26.09. 9:30 1.2 l/m2 in 1 Std. -
Sa, 26.09. 9:20 keine Meldung -
Sa, 26.09. 9:10 keine Meldung -
Sa, 26.09. 9:00 1.6 l/m2 in 1 Std. Regen
Sa, 26.09. 8:50 keine Meldung -
Sa, 26.09. 8:40 keine Meldung -
Sa, 26.09. 8:30 0.8 l/m2 in 1 Std. -
Sa, 26.09. 8:00 1.6 l/m2 in 1 Std. Regen
Ortszeit Stärke Spitze Richtung
km/h Bft. km/h Grad Sektor
Sa, 26.09. 8:00 7 2 22 310° NW
Sa, 26.09. 2:00 4 1 25 290° W
Fr, 25.09. 20:00 11 2 33 280° W
Fr, 25.09. 14:00 14 3 32 280° W
Fr, 25.09. 8:00 11 2 29 260° W
Fr, 25.09. 2:00 11 2 32 150° SO
Do, 24.09. 20:00 9 2 30 190° S
Do, 24.09. 14:00 14 3 32 250° W
Ortszeit Stärke Spitze Richtung
km/h Bft. km/h Grad Sektor
Sa, 26.09. 9:30 7 2 22 340° N
Sa, 26.09. 9:20 7 2 - 340° N
Sa, 26.09. 9:10 7 2 - 340° N
Sa, 26.09. 9:00 7 2 22 350° N
Sa, 26.09. 8:50 7 2 - 350° N
Sa, 26.09. 8:40 7 2 - 330° NW
Sa, 26.09. 8:30 7 2 18 340° N
Sa, 26.09. 8:00 7 2 22 310° NW
Ortszeit Untergrenze Bedeckung Gattung
total tief tief mittel hoch
Sa, 26.09. 8:00 90 m 8/8 8/8 - - -
Sa, 26.09. 2:00 150 m 7/8 7/8 - - -
Fr, 25.09. 20:00 1500 m 7/8 8/8 - - -
Fr, 25.09. 14:00 270 m 7/8 7/8 - - -
Fr, 25.09. 8:00 540 m 7/8 7/8 - - -
Fr, 25.09. 2:00 1380 m 7/8 7/8 - - -
Do, 24.09. 20:00 6000 m 8/8 8/8 - - -
Do, 24.09. 14:00 390 m 7/8 4/8 - - -
Ortszeit Bedeckungsgrad in Achtel und Wolkenuntergrenze
Sa, 26.09. 9:30 5(120m) 7(210m)
Sa, 26.09. 9:20 5(120m) 7(210m)
Sa, 26.09. 9:10 6(150m) 7(330m) 7(480m)
Sa, 26.09. 9:00 6(120m) 7(540m) 7(690m)
Sa, 26.09. 8:50 6(120m) 7(540m) 7(690m)
Sa, 26.09. 8:40 6(120m) 7(510m) 8(690m)
Sa, 26.09. 8:30 6(90m) 7(210m) 8(480m)
Sa, 26.09. 8:00 7(90m) 8(240m)
Ortszeit Stationsdruck (hPa) Tendenz (hPa in 3 Std.)
Sa, 26.09. 8:00 894 - 0,6
Sa, 26.09. 2:00 896 - 0,8
Fr, 25.09. 20:00 897 + 0,1
Fr, 25.09. 14:00 897 + 0,2
Fr, 25.09. 8:00 897 - 1,0
Fr, 25.09. 2:00 900 - 3,1
Do, 24.09. 20:00 905 - 1,5
Do, 24.09. 14:00 907 + 0,4
Ortszeit Stationsdruck (hPa) Tendenz (hPa in 3 Std.)
Sa, 26.09. 9:30 894 - 0,5
Sa, 26.09. 9:20 894 keine Meldung
Sa, 26.09. 9:10 894 keine Meldung
Sa, 26.09. 9:00 894 - 0,9
Sa, 26.09. 8:50 894 keine Meldung
Sa, 26.09. 8:40 894 keine Meldung
Sa, 26.09. 8:30 894 - 0,8
Sa, 26.09. 8:00 894 - 0,6
Ortszeit Schneehöhe (cm)
Sa, 26.09. 8:00 0
Sa, 26.09. 2:00 0
Fr, 25.09. 20:00 0
Fr, 25.09. 14:00 0
Fr, 25.09. 8:00 0
Fr, 25.09. 2:00 0
Do, 24.09. 20:00 0
Do, 24.09. 14:00 0
Ortszeit Schneehöhe (cm)
Sa, 26.09. 9:30 0
Sa, 26.09. 9:20 0
Sa, 26.09. 9:10 0
Sa, 26.09. 9:00 0
Sa, 26.09. 8:50 0
Sa, 26.09. 8:40 0
Sa, 26.09. 8:30 0
Sa, 26.09. 8:00 0
Link zu dieser Seite / Seite empfehlen

Das Wetter in ...